createdAt,value
2022-09-26T00:00:08.692Z,86.83
2022-09-26T00:02:38.888Z,86.79
2022-09-26T00:05:05.851Z,86.53
2022-09-26T00:07:33.342Z,86.39
2022-09-26T00:10:00.263Z,85.99
2022-09-26T00:12:26.907Z,85.90
2022-09-26T00:14:53.763Z,85.73
2022-09-26T00:17:20.370Z,85.32
2022-09-26T00:19:48.041Z,84.98
2022-09-26T00:22:15.299Z,84.71
2022-09-26T00:24:41.903Z,84.57
2022-09-26T00:27:09.053Z,84.31
2022-09-26T00:29:35.940Z,84.08
2022-09-26T00:32:02.739Z,84.00
2022-09-26T00:34:29.437Z,83.58
2022-09-26T00:36:56.532Z,83.73
2022-09-26T00:39:25.978Z,83.61
2022-09-26T00:41:54.473Z,83.74
2022-09-26T00:44:39.585Z,83.67
2022-09-26T00:47:07.258Z,83.95
2022-09-26T00:49:35.627Z,84.01
2022-09-26T00:52:14.465Z,84.39
2022-09-26T00:54:45.447Z,84.61
2022-09-26T00:57:15.317Z,84.48
2022-09-26T00:59:45.955Z,84.68
2022-09-26T01:02:12.678Z,84.77
2022-09-26T01:04:39.974Z,84.75
2022-09-26T01:07:09.481Z,84.82
2022-09-26T01:09:36.617Z,85.19
2022-09-26T01:12:03.395Z,85.43
2022-09-26T01:14:30.233Z,85.54
2022-09-26T01:16:57.088Z,85.81
2022-09-26T01:19:45.587Z,85.87
2022-09-26T01:22:33.282Z,86.14
2022-09-26T01:25:20.093Z,86.72
2022-09-26T01:28:01.578Z,86.89
2022-09-26T01:30:50.666Z,87.03
2022-09-26T01:33:17.318Z,87.09
2022-09-26T01:36:08.437Z,87.45
2022-09-26T01:38:42.542Z,87.48
2022-09-26T01:41:22.253Z,87.53
2022-09-26T01:44:00.828Z,87.84
2022-09-26T01:46:57.659Z,87.72
2022-09-26T01:49:35.141Z,87.68
2022-09-26T01:52:08.024Z,87.63
2022-09-26T01:54:48.068Z,87.78
2022-09-26T01:57:34.001Z,87.61
2022-09-26T02:00:01.754Z,87.73
2022-09-26T02:02:32.705Z,87.88
2022-09-26T02:05:04.118Z,87.61
2022-09-26T02:07:54.893Z,87.85
2022-09-26T02:11:01.420Z,87.97
2022-09-26T02:13:52.347Z,87.84
2022-09-26T02:16:25.759Z,88.16
2022-09-26T02:18:57.070Z,88.23
2022-09-26T02:21:24.476Z,88.17
2022-09-26T02:23:52.375Z,88.18
2022-09-26T02:26:21.389Z,88.45
2022-09-26T02:28:48.064Z,88.47
2022-09-26T02:31:21.380Z,88.62
2022-09-26T02:33:50.168Z,88.91
2022-09-26T02:36:17.690Z,88.87
2022-09-26T02:38:44.359Z,88.88
2022-09-26T02:42:16.418Z,89.14
2022-09-26T02:45:11.271Z,89.04
2022-09-26T02:47:56.846Z,89.32
2022-09-26T02:50:33.444Z,89.39
2022-09-26T02:56:30.131Z,89.62
2022-09-26T02:59:12.040Z,89.56
2022-09-26T03:01:44.182Z,89.58
2022-09-26T03:04:16.417Z,89.72
2022-09-26T03:06:45.714Z,89.78
2022-09-26T03:09:12.749Z,90.02
2022-09-26T03:11:40.535Z,89.97
2022-09-26T03:14:07.783Z,90.23
2022-09-26T03:16:35.047Z,90.19
2022-09-26T03:19:10.867Z,90.05
2022-09-26T03:21:37.643Z,90.33
2022-09-26T03:24:04.626Z,90.40
2022-09-26T03:26:32.485Z,90.55
2022-09-26T03:29:00.455Z,90.43
2022-09-26T03:31:29.104Z,90.68
2022-09-26T03:34:00.854Z,90.71
2022-09-26T03:36:27.867Z,90.85
2022-09-26T03:38:54.721Z,91.07
2022-09-26T03:41:40.001Z,91.20
2022-09-26T03:44:14.141Z,91.03
2022-09-26T03:47:13.536Z,91.32
2022-09-26T03:49:41.740Z,91.31
2022-09-26T03:52:10.696Z,91.29
2022-09-26T03:54:37.607Z,91.43
2022-09-26T03:57:04.415Z,91.31
2022-09-26T03:59:32.691Z,91.22
2022-09-26T04:01:59.882Z,91.12
2022-09-26T04:04:26.807Z,91.13
2022-09-26T04:06:53.619Z,90.97
2022-09-26T04:09:20.958Z,91.08
2022-09-26T04:11:51.149Z,90.91
2022-09-26T04:14:18.441Z,90.92
2022-09-26T04:16:47.686Z,91.09
2022-09-26T04:19:22.750Z,90.99
2022-09-26T04:21:51.041Z,90.89
2022-09-26T04:24:19.609Z,90.96
2022-09-26T04:26:46.897Z,91.07
2022-09-26T04:29:14.015Z,90.97
2022-09-26T04:32:06.311Z,90.85
2022-09-26T04:34:41.729Z,91.04
2022-09-26T04:37:10.203Z,90.88
2022-09-26T04:39:37.016Z,90.82
2022-09-26T04:42:03.726Z,90.78
2022-09-26T04:44:30.434Z,90.65
2022-09-26T04:46:58.131Z,90.62
2022-09-26T04:49:32.615Z,90.52
2022-09-26T04:51:59.297Z,90.63
2022-09-26T04:54:26.346Z,90.50
2022-09-26T04:56:53.871Z,90.49
2022-09-26T04:59:20.564Z,90.27
2022-09-26T05:01:56.365Z,90.64
2022-09-26T05:04:28.058Z,90.45
2022-09-26T05:06:57.918Z,90.67
2022-09-26T05:09:29.239Z,90.54
2022-09-26T05:12:13.301Z,90.54
2022-09-26T05:14:42.128Z,90.59
2022-09-26T05:17:11.011Z,90.69
2022-09-26T05:19:37.792Z,90.61
2022-09-26T05:22:23.216Z,90.51
2022-09-26T05:25:08.664Z,90.48
2022-09-26T05:27:36.147Z,90.65
2022-09-26T05:30:02.941Z,90.77
2022-09-26T05:32:29.775Z,90.67
2022-09-26T05:34:57.029Z,90.81
2022-09-26T05:37:24.252Z,90.88
2022-09-26T05:40:09.527Z,90.77
2022-09-26T05:42:39.620Z,90.84
2022-09-26T05:45:06.580Z,90.94
2022-09-26T05:47:36.207Z,91.11
2022-09-26T05:50:12.605Z,91.00
2022-09-26T05:52:39.687Z,91.06
2022-09-26T05:55:07.553Z,90.90
2022-09-26T05:57:58.523Z,90.76
2022-09-26T06:00:29.208Z,90.80
2022-09-26T06:03:01.278Z,90.79
2022-09-26T06:05:38.748Z,90.81
2022-09-26T06:08:28.223Z,90.48
2022-09-26T06:11:24.979Z,90.52
2022-09-26T06:13:51.921Z,90.81
2022-09-26T06:16:20.209Z,90.96
2022-09-26T06:18:49.198Z,90.79
2022-09-26T06:21:17.336Z,90.75
2022-09-26T06:23:46.768Z,90.78
2022-09-26T06:26:24.678Z,90.67
2022-09-26T06:28:58.217Z,90.77
2022-09-26T06:31:26.537Z,90.66
2022-09-26T06:34:16.531Z,90.43
2022-09-26T06:37:03.568Z,90.37
2022-09-26T06:39:35.727Z,90.28
2022-09-26T06:42:05.721Z,90.21
2022-09-26T06:44:48.430Z,89.85
2022-09-26T06:47:15.206Z,90.18
2022-09-26T06:49:42.319Z,90.16
2022-09-26T06:52:21.873Z,90.10
2022-09-26T06:54:48.599Z,89.77
2022-09-26T06:57:15.513Z,90.03
2022-09-26T06:59:42.371Z,89.88
2022-09-26T07:02:17.680Z,89.52
2022-09-26T07:05:02.941Z,89.48
2022-09-26T07:07:42.266Z,89.15
2022-09-26T07:10:15.206Z,89.14
2022-09-26T07:12:51.297Z,89.20
2022-09-26T07:15:18.911Z,88.81
2022-09-26T07:17:46.932Z,89.09
2022-09-26T07:20:40.028Z,88.87
2022-09-26T07:23:16.425Z,88.87
2022-09-26T07:25:46.843Z,88.20
2022-09-26T07:28:13.642Z,88.28
2022-09-26T07:30:43.768Z,88.12
2022-09-26T07:33:15.840Z,87.71
2022-09-26T07:35:46.155Z,87.49
2022-09-26T07:38:13.262Z,87.33
2022-09-26T07:40:40.628Z,87.10
2022-09-26T07:43:35.834Z,87.02
2022-09-26T07:46:13.451Z,86.89
2022-09-26T07:49:03.051Z,86.98
2022-09-26T07:51:41.716Z,86.67
2022-09-26T07:54:12.817Z,86.65
2022-09-26T07:57:09.008Z,86.59
2022-09-26T07:59:58.963Z,86.80
2022-09-26T08:02:42.667Z,86.57
2022-09-26T08:05:10.952Z,86.54
2022-09-26T08:07:38.122Z,86.35
2022-09-26T08:10:20.158Z,86.23
2022-09-26T08:13:09.859Z,85.81
2022-09-26T08:16:06.298Z,85.69
2022-09-26T08:18:38.008Z,85.06
2022-09-26T08:21:05.810Z,84.46
2022-09-26T08:23:33.374Z,84.00
2022-09-26T08:26:23.999Z,83.81
2022-09-26T08:28:56.572Z,84.01
2022-09-26T08:31:23.412Z,84.13
2022-09-26T08:33:50.213Z,83.59
2022-09-26T08:36:17.007Z,83.26
2022-09-26T08:38:59.495Z,83.31
2022-09-26T08:42:00.989Z,83.28
2022-09-26T08:45:36.481Z,83.02
2022-09-26T08:48:45.073Z,82.63
2022-09-26T08:51:17.705Z,82.35
2022-09-26T08:53:57.053Z,82.23
2022-09-26T08:56:31.878Z,82.19
2022-09-26T08:58:58.893Z,82.47
2022-09-26T09:01:31.134Z,82.51
2022-09-26T09:04:23.568Z,82.46
2022-09-26T09:06:57.783Z,82.30
2022-09-26T09:09:25.078Z,81.86
2022-09-26T09:12:23.561Z,81.63
2022-09-26T09:15:31.998Z,81.07
2022-09-26T09:18:29.201Z,80.65
2022-09-26T09:22:05.312Z,80.70
2022-09-26T09:25:00.339Z,80.29
2022-09-26T09:28:07.237Z,79.73
2022-09-26T09:30:38.311Z,79.38
2022-09-26T09:33:31.681Z,79.50
2022-09-26T09:36:18.335Z,79.03
2022-09-26T09:39:11.019Z,78.62
2022-09-26T09:41:50.630Z,78.23
2022-09-26T09:44:32.116Z,78.13
2022-09-26T09:46:58.993Z,78.08
2022-09-26T09:49:26.949Z,77.62
2022-09-26T09:52:24.492Z,76.96
2022-09-26T09:55:32.372Z,76.49
2022-09-26T09:58:18.154Z,75.84
2022-09-26T10:00:51.323Z,74.94
2022-09-26T10:03:32.927Z,74.50
2022-09-26T10:06:00.963Z,73.75
2022-09-26T10:08:37.578Z,74.48
2022-09-26T10:11:42.669Z,74.39
2022-09-26T10:14:55.006Z,73.27
2022-09-26T10:18:00.819Z,72.24
2022-09-26T10:20:41.368Z,72.10
2022-09-26T10:23:11.977Z,71.06
2022-09-26T10:25:38.691Z,70.82
2022-09-26T10:28:05.480Z,70.25
2022-09-26T10:30:33.648Z,70.68
2022-09-26T10:33:04.701Z,70.88
2022-09-26T10:35:43.123Z,71.25
2022-09-26T10:38:23.419Z,70.83
2022-09-26T10:41:10.482Z,71.43
2022-09-26T10:43:37.978Z,71.21
2022-09-26T10:46:19.348Z,70.15
2022-09-26T10:49:05.672Z,70.12
2022-09-26T10:52:19.131Z,70.84
2022-09-26T10:54:49.294Z,70.37
2022-09-26T10:57:25.004Z,69.51
2022-09-26T10:59:53.187Z,69.41
2022-09-26T11:02:22.892Z,68.97
2022-09-26T11:05:10.421Z,68.27
2022-09-26T11:07:44.310Z,67.44
2022-09-26T11:10:27.522Z,66.66
2022-09-26T11:13:19.555Z,66.05
2022-09-26T11:16:01.262Z,65.69
2022-09-26T11:18:50.204Z,65.66
2022-09-26T11:21:29.446Z,65.81
2022-09-26T11:24:11.689Z,65.95
2022-09-26T11:26:49.427Z,65.55
2022-09-26T11:29:47.166Z,65.07
2022-09-26T11:32:17.758Z,64.69
2022-09-26T11:35:18.564Z,64.06
2022-09-26T11:38:27.445Z,64.14
2022-09-26T11:41:07.390Z,63.90
2022-09-26T11:43:47.623Z,63.23
2022-09-26T11:46:35.604Z,63.13
2022-09-26T11:49:34.645Z,62.98
2022-09-26T11:52:48.243Z,62.37
2022-09-26T11:55:38.279Z,62.50
2022-09-26T11:58:33.332Z,62.39
2022-09-26T12:01:23.414Z,62.18
2022-09-26T12:04:03.364Z,62.00
2022-09-26T12:06:33.552Z,62.56
2022-09-26T12:09:39.080Z,62.60
2022-09-26T12:12:09.621Z,62.51
2022-09-26T12:14:56.163Z,62.43
2022-09-26T12:17:23.102Z,62.63
2022-09-26T12:20:14.073Z,62.66
2022-09-26T12:22:46.528Z,62.76
2022-09-26T12:25:36.146Z,62.57
2022-09-26T12:28:31.801Z,62.64
2022-09-26T12:31:08.794Z,62.53
2022-09-26T12:33:49.169Z,62.51
2022-09-26T12:36:40.438Z,62.13
2022-09-26T12:39:43.023Z,61.85
2022-09-26T12:42:37.990Z,62.20
2022-09-26T12:45:23.256Z,61.84
2022-09-26T12:48:05.392Z,62.08
2022-09-26T12:50:58.267Z,61.45
2022-09-26T12:53:28.352Z,61.50
2022-09-26T12:56:08.969Z,61.63
2022-09-26T12:58:35.614Z,61.08
2022-09-26T13:01:20.144Z,60.74
2022-09-26T13:04:24.424Z,60.48
2022-09-26T13:07:21.273Z,61.38
2022-09-26T13:09:57.582Z,61.37
2022-09-26T13:12:55.656Z,61.43
2022-09-26T13:15:24.443Z,61.09
2022-09-26T13:17:54.534Z,60.98
2022-09-26T13:20:29.757Z,61.52
2022-09-26T13:23:06.056Z,61.16
2022-09-26T13:25:49.863Z,61.03
2022-09-26T13:28:24.227Z,61.24
2022-09-26T13:30:53.703Z,61.45
2022-09-26T13:33:42.889Z,61.38
2022-09-26T13:36:09.783Z,61.12
2022-09-26T13:39:06.884Z,61.14
2022-09-26T13:41:48.513Z,61.22
2022-09-26T13:44:18.168Z,61.54
2022-09-26T13:46:53.788Z,61.59
2022-09-26T13:49:45.310Z,61.57
2022-09-26T13:52:15.038Z,61.17
2022-09-26T13:55:04.119Z,61.12
2022-09-26T13:58:00.906Z,61.72
2022-09-26T14:00:31.332Z,61.74
2022-09-26T14:03:10.286Z,61.96
2022-09-26T14:05:43.781Z,62.09
2022-09-26T14:08:44.764Z,62.22
2022-09-26T14:11:49.634Z,62.65
2022-09-26T14:14:16.829Z,63.12
2022-09-26T14:16:47.347Z,63.41
2022-09-26T14:19:26.966Z,63.89
2022-09-26T14:22:05.749Z,64.35
2022-09-26T14:24:37.297Z,63.65
2022-09-26T14:27:07.073Z,63.76
2022-09-26T14:29:44.646Z,63.67
2022-09-26T14:32:15.196Z,64.10
2022-09-26T14:34:44.671Z,64.95
2022-09-26T14:37:24.047Z,65.46
2022-09-26T14:39:52.529Z,65.79
2022-09-26T14:42:25.485Z,65.62
2022-09-26T14:45:00.854Z,66.13
2022-09-26T14:47:29.219Z,66.69
2022-09-26T14:50:01.860Z,67.20
2022-09-26T14:52:28.620Z,67.83
2022-09-26T14:55:01.093Z,67.54
2022-09-26T14:57:31.626Z,67.37
2022-09-26T14:59:59.548Z,67.21
2022-09-26T15:02:34.767Z,67.10
2022-09-26T15:05:06.680Z,67.43
2022-09-26T15:07:41.359Z,67.94
2022-09-26T15:10:14.021Z,68.43
2022-09-26T15:13:45.438Z,68.64
2022-09-26T15:16:21.352Z,68.54
2022-09-26T15:18:51.075Z,68.53
2022-09-26T15:21:28.256Z,68.70
2022-09-26T15:23:56.562Z,68.73
2022-09-26T15:26:27.629Z,68.85
2022-09-26T15:28:54.782Z,68.88
2022-09-26T15:31:22.977Z,69.04
2022-09-26T15:34:00.357Z,69.49
2022-09-26T15:36:36.332Z,69.60
2022-09-26T15:39:27.285Z,69.64
2022-09-26T15:42:12.495Z,70.02
2022-09-26T15:44:48.151Z,70.30
2022-09-26T15:47:38.248Z,70.28
2022-09-26T15:50:12.343Z,70.35
2022-09-26T15:52:41.098Z,70.35
2022-09-26T15:55:09.583Z,70.50
2022-09-26T15:57:36.317Z,70.61
2022-09-26T16:00:03.518Z,70.70
2022-09-26T16:02:32.641Z,70.72
2022-09-26T16:04:59.508Z,70.88
2022-09-26T16:07:27.043Z,71.11
2022-09-26T16:09:53.829Z,71.55
2022-09-26T16:12:24.814Z,71.68
2022-09-26T16:14:58.759Z,71.74
2022-09-26T16:17:32.377Z,71.88
2022-09-26T16:20:03.993Z,71.92
2022-09-26T16:22:36.862Z,72.03
2022-09-26T16:25:15.825Z,71.89
2022-09-26T16:27:42.867Z,71.86
2022-09-26T16:30:33.596Z,71.77
2022-09-26T16:33:02.953Z,71.75
2022-09-26T16:35:30.809Z,71.68
2022-09-26T16:38:18.971Z,71.75
2022-09-26T16:40:55.954Z,71.64
2022-09-26T16:43:31.693Z,71.69
2022-09-26T16:46:09.666Z,71.81
2022-09-26T16:48:41.420Z,71.99
2022-09-26T16:51:15.510Z,72.09
2022-09-26T16:53:46.201Z,72.31
2022-09-26T16:56:17.550Z,72.83
2022-09-26T16:59:01.281Z,73.30
2022-09-26T17:01:46.800Z,73.78
2022-09-26T17:04:18.552Z,74.47
2022-09-26T17:06:46.353Z,75.00
2022-09-26T17:09:21.362Z,74.90
2022-09-26T17:11:52.622Z,74.80
2022-09-26T17:14:23.073Z,74.98
2022-09-26T17:16:55.081Z,75.35
2022-09-26T17:19:23.396Z,75.29
2022-09-26T17:21:50.941Z,75.29
2022-09-26T17:24:25.053Z,75.52
2022-09-26T17:27:01.768Z,75.78
2022-09-26T17:29:39.694Z,76.19
2022-09-26T17:32:11.113Z,76.25
2022-09-26T17:34:37.986Z,76.47
2022-09-26T17:37:04.854Z,76.70
2022-09-26T17:39:31.661Z,77.13
2022-09-26T17:42:00.024Z,77.21
2022-09-26T17:44:26.901Z,77.44
2022-09-26T17:46:55.901Z,77.65
2022-09-26T17:49:24.539Z,77.73
2022-09-26T17:51:54.179Z,77.85
2022-09-26T17:54:21.011Z,77.94
2022-09-26T17:56:48.585Z,78.09
2022-09-26T17:59:22.860Z,78.03
2022-09-26T18:01:55.018Z,77.89
2022-09-26T18:04:22.360Z,77.83
2022-09-26T18:06:49.182Z,77.75
2022-09-26T18:09:16.890Z,77.73
2022-09-26T18:11:54.395Z,77.64
2022-09-26T18:14:21.230Z,77.62
2022-09-26T18:16:48.135Z,77.85
2022-09-26T18:19:14.985Z,78.06
2022-09-26T18:21:41.824Z,78.83
2022-09-26T18:24:18.633Z,79.47
2022-09-26T18:26:50.968Z,79.95
2022-09-26T18:29:23.187Z,80.10
2022-09-26T18:31:50.002Z,80.26
2022-09-26T18:34:20.054Z,80.62
2022-09-26T18:36:47.861Z,81.06
2022-09-26T18:39:14.791Z,81.56
2022-09-26T18:41:41.872Z,81.71
2022-09-26T18:44:16.685Z,82.22
2022-09-26T18:46:46.309Z,82.61
2022-09-26T18:49:13.265Z,82.95
2022-09-26T18:51:40.158Z,83.33
2022-09-26T18:54:14.318Z,83.57
2022-09-26T18:57:00.096Z,83.77
2022-09-26T18:59:29.213Z,84.32
2022-09-26T19:01:56.425Z,84.78
2022-09-26T19:04:23.595Z,84.68
2022-09-26T19:07:01.163Z,85.10
2022-09-26T19:09:33.089Z,85.01
2022-09-26T19:12:00.689Z,85.27
2022-09-26T19:14:28.815Z,85.31
2022-09-26T19:16:55.941Z,85.12
2022-09-26T19:19:23.057Z,85.30
2022-09-26T19:22:13.045Z,85.16
2022-09-26T19:24:50.358Z,85.14
2022-09-26T19:27:38.556Z,85.29
2022-09-26T19:30:16.246Z,85.15
2022-09-26T19:32:44.749Z,84.92
2022-09-26T19:35:24.979Z,84.95
2022-09-26T19:37:52.040Z,84.97
2022-09-26T19:40:19.895Z,84.72
2022-09-26T19:42:46.772Z,84.44
2022-09-26T19:45:13.886Z,84.41
2022-09-26T19:47:43.369Z,84.25
2022-09-26T19:50:15.686Z,84.07
2022-09-26T19:52:42.591Z,83.90
2022-09-26T19:55:17.834Z,83.80
2022-09-26T19:57:44.706Z,83.53
2022-09-26T20:00:12.384Z,83.47
2022-09-26T20:02:39.365Z,83.41
2022-09-26T20:05:20.638Z,83.34
2022-09-26T20:07:47.484Z,83.23
2022-09-26T20:10:18.193Z,82.91
2022-09-26T20:12:45.229Z,83.02
2022-09-26T20:15:13.268Z,82.88
2022-09-26T20:17:44.506Z,82.93
2022-09-26T20:20:24.458Z,83.13
2022-09-26T20:22:51.633Z,82.82
2022-09-26T20:25:36.646Z,82.87
2022-09-26T20:28:03.392Z,83.01
2022-09-26T20:30:48.757Z,82.86
2022-09-26T20:33:15.586Z,82.63
2022-09-26T20:35:46.228Z,82.54
2022-09-26T20:38:33.867Z,82.35
2022-09-26T20:41:02.340Z,82.11
2022-09-26T20:43:33.884Z,82.10
2022-09-26T20:46:08.681Z,82.08
2022-09-26T20:48:35.702Z,82.33
2022-09-26T20:51:02.855Z,82.28
2022-09-26T20:53:29.575Z,82.25
2022-09-26T20:55:56.215Z,82.16
2022-09-26T20:58:23.084Z,82.30
2022-09-26T21:00:49.868Z,82.36
2022-09-26T21:03:17.301Z,82.03
2022-09-26T21:05:44.060Z,82.08
2022-09-26T21:08:37.162Z,82.27
2022-09-26T21:11:03.846Z,82.22
2022-09-26T21:13:30.437Z,82.56
2022-09-26T21:15:57.124Z,82.58
2022-09-26T21:18:24.772Z,82.69
2022-09-26T21:20:52.042Z,82.84
2022-09-26T21:23:30.623Z,83.13
2022-09-26T21:25:57.232Z,83.28
2022-09-26T21:28:27.886Z,83.26
2022-09-26T21:31:05.442Z,83.47
2022-09-26T21:33:32.215Z,83.42
2022-09-26T21:35:58.829Z,83.69
2022-09-26T21:38:25.608Z,83.77
2022-09-26T21:40:54.467Z,83.89
2022-09-26T21:43:22.887Z,84.27
2022-09-26T21:45:49.691Z,84.41
2022-09-26T21:48:16.509Z,84.67
2022-09-26T21:50:58.149Z,84.89
2022-09-26T21:53:31.196Z,84.88
2022-09-26T21:56:03.772Z,85.09
2022-09-26T21:58:35.607Z,84.92
2022-09-26T22:01:02.364Z,85.08
2022-09-26T22:03:29.099Z,85.11
2022-09-26T22:05:55.690Z,85.01
2022-09-26T22:08:22.342Z,85.12
2022-09-26T22:10:52.074Z,84.81
2022-09-26T22:13:18.739Z,84.97
2022-09-26T22:15:45.336Z,84.96
2022-09-26T22:18:11.999Z,85.01
2022-09-26T22:20:38.610Z,85.18
2022-09-26T22:23:05.281Z,84.99
2022-09-26T22:25:32.084Z,85.06
2022-09-26T22:27:58.753Z,85.16
2022-09-26T22:30:25.458Z,85.23
2022-09-26T22:32:52.176Z,85.52
2022-09-26T22:35:18.805Z,85.57
2022-09-26T22:37:45.496Z,85.43
2022-09-26T22:40:12.271Z,85.96
2022-09-26T22:42:39.016Z,85.91
2022-09-26T22:45:05.776Z,85.93
2022-09-26T22:47:32.469Z,86.29
2022-09-26T22:49:59.058Z,86.25
2022-09-26T22:52:25.726Z,86.53
2022-09-26T22:54:52.337Z,86.63
2022-09-26T22:57:19.083Z,87.00
2022-09-26T22:59:45.783Z,86.81
2022-09-26T23:02:12.490Z,87.03
2022-09-26T23:04:48.302Z,87.23
2022-09-26T23:07:17.509Z,87.22
2022-09-26T23:09:44.207Z,87.38
2022-09-26T23:12:10.967Z,87.63
2022-09-26T23:14:37.659Z,87.69
2022-09-26T23:17:04.365Z,87.78
2022-09-26T23:19:31.509Z,88.01
2022-09-26T23:21:58.287Z,88.23
2022-09-26T23:24:24.948Z,88.41
2022-09-26T23:26:51.628Z,88.35
2022-09-26T23:29:18.206Z,88.59
2022-09-26T23:31:44.902Z,88.82
2022-09-26T23:34:12.213Z,88.94
2022-09-26T23:36:38.900Z,88.90
2022-09-26T23:39:09.033Z,88.99
2022-09-26T23:41:36.186Z,88.93
2022-09-26T23:44:02.864Z,89.23
2022-09-26T23:46:29.506Z,89.40
2022-09-26T23:48:56.220Z,89.28
2022-09-26T23:51:22.871Z,89.72
2022-09-26T23:53:49.607Z,89.54
2022-09-26T23:56:16.974Z,89.81
2022-09-26T23:58:43.771Z,89.63
